Friday, May 25, 2018, 4:56 PM GMT
Back to Local

CYWA, Petawawa, Ont.

Location: , , Canada Lat: 45.95
Local Time: 4:56 PM GMT (16:56 GMT) Lon: -77.317
Time Zone: GMT Elev: 426 ft

Show me the last for .
Show Decoded

2018-05-25 16:00 METAR CYWA 251600Z 27009KT 240V310 15SM SCT030 BKN080 BKN200 24/16 A2977 RMK
                 CU3AC2CI2 DA1938FT SLP081 =
2018-05-25 15:00 METAR CYWA 251500Z 29008KT 240V310 15SM FEW025 OVC200 22/16 A2979 RMK CU2CI6
                 DA1726FT SLP088 =
2018-05-25 14:00 METAR CYWA 251400Z 27004KT 210V320 15SM FEW015 FEW066 OVC200 19/17 A2982 RMK
                 SF1AC2CI6 DA1355FT SF TR SLP099 =
2018-05-25 13:45 METAR CYWA 251345Z 25003KT 220V290 10SM FEW015 BKN065 18/16 A2983 RMK SF1SC6
                 DA1271FT SLP101 =
2018-05-25 13:31 METAR CYWA 251331Z 27004KT 240V320 8SM -DZ OVC020 18/16 A2983 RMK SC8 DA1169FT
                 SLP104 =
2018-05-25 13:00 METAR CYWA 251300Z 28008KT 4SM -SHRA FEW015 OVC065 19/15 A2984 RMK SF1SC8
                 DA1292FT SF TR SLP107 =
2018-05-25 12:00 METAR CYWA 251200Z 00000KT 15SM BKN064 OVC200 17/13 A2984 RMK SC6CI2 DA1015FT
                 FST STFD OBS SLP107 =
2018-05-25 11:00 METAR CYWA 251100Z AUTO 00000KT 9SM FEW076 15/11 A2985 RMK SLP109 =
2018-05-25 10:00 METAR CYWA 251000Z AUTO 00000KT 9SM FEW086 13/10 A2986 RMK SLP112 =
2018-05-25 09:00 METAR CYWA 250900Z AUTO 00000KT 9SM CLR 14/10 A2985 RMK SLP110 =
2018-05-25 08:00 METAR CYWA 250800Z AUTO 28002KT 9SM CLR 16/10 A2986 RMK SLP113 =
2018-05-25 07:00 METAR CYWA 250700Z AUTO 30003KT 9SM CLR 19/10 A2987 RMK SLP115 =
2018-05-25 06:00 METAR CYWA 250600Z AUTO 29002KT 9SM CLR 18/09 A2988 RMK SLP119 =
2018-05-25 05:00 METAR CYWA 250500Z AUTO 28004KT 9SM CLR 19/08 A2989 RMK SLP122 =
2018-05-25 04:00 METAR CYWA 250400Z AUTO 29004KT 9SM CLR 21/08 A2990 RMK SLP127 =
2018-05-25 03:00 METAR CYWA 250300Z AUTO 30002KT 9SM CLR 22/07 A2990 RMK SLP127 =
2018-05-25 02:00 METAR CYWA 250200Z AUTO 26005KT 230V290 9SM CLR 23/07 A2990 RMK SLP127 =
2018-05-25 01:00 METAR CYWA 250100Z AUTO 26007KT 240V300 9SM CLR 25/07 A2990 RMK SLP127 =
2018-05-25 00:00 METAR CYWA 250000Z AUTO 26009KT 240V300 9SM CLR 27/07 A2990 RMK SLP127 =
2018-05-24 23:00 METAR CYWA 242300Z AUTO 28010G18KT 9SM CLR 29/06 A2990 RMK SLP126 =
2018-05-24 22:00 METAR CYWA 242200Z AUTO 29012KT 9SM CLR 29/05 A2991 RMK SLP131 =
2018-05-24 21:23 METAR CYWA 242123Z AUTO 27011G16KT 9SM FEW094 28/08 A2992 =
2018-05-24 21:00 METAR CYWA 242100Z AUTO 11006KT 9SM FEW094 26/08 A2993 RMK SLP139 =
2018-05-24 20:30 METAR CYWA 242030Z 11007KT 15SM FEW050 FEW097 26/07 A2995 RMK CU1AC1 DA1836FT
                 LAST STFD OBS/NEXT 151200 UTC SLP145 =
2018-05-24 20:00 METAR CYWA 242000Z 13010KT 15SM FEW050 FEW097 25/05 A2996 RMK CU1AC1 DA1706FT AC
                 TR SLP148 =
2018-05-24 19:00 METAR CYWA 241900Z 13010KT 15SM FEW040 24/05 A3000 RMK CU1 DA1636FT SLP160 =
2018-05-24 18:00 METAR CYWA 241800Z 12006KT 15SM FEW250 23/03 A3004 RMK CI1 DA1456FT SLP174 =
2018-05-24 17:00 METAR CYWA 241700Z 11006KT 15SM FEW250 22/04 A3007 RMK CI2 DA1246FT SLP187 =

Support USWX by starting your Amazon purchase here.